Time;durP1;ratioP1;P1;durP2;ratioP2;P2;SDS_P1;SDS_P2;PMS_P1;PMS_P2;Temp;Humidity;BMP_temperature;BMP_pressure;BME280_temperature;BME280_humidity;BME280_pressure;Samples;Min_cycle;Max_cycle;Signal;HPM_P1;HPM_P2
2022/10/15 00:02:20;;;;;;;15.60;12.90;;;;;;;10.96;89.99;96684.79;105115;1305;22456;-76
2022/10/15 00:04:53;;;;;;;17.20;13.20;;;;;;;10.97;90.01;96682.45;105097;1277;22473;-76
2022/10/15 00:07:24;;;;;;;15.20;12.60;;;;;;;10.98;89.96;96680.75;105120;1305;22454;-76
2022/10/15 00:09:56;;;;;;;15.10;12.90;;;;;;;10.99;89.87;96681.81;105064;1305;22471;-76
2022/10/15 00:12:27;;;;;;;16.90;13.90;;;;;;;11.01;89.88;96680.05;105099;1305;25493;-76
2022/10/15 00:14:58;;;;;;;15.50;12.90;;;;;;;11.02;89.87;96674.94;105089;1304;22509;-76
2022/10/15 00:17:30;;;;;;;19.80;14.50;;;;;;;11.02;89.78;96671.86;105102;1305;22483;-76
2022/10/15 00:20:01;;;;;;;19.20;14.90;;;;;;;11.03;89.76;96668.30;104958;1281;22473;-76
2022/10/15 00:22:33;;;;;;;17.00;14.20;;;;;;;11.02;89.77;96670.80;105032;1298;22501;-76
2022/10/15 00:25:05;;;;;;;17.00;14.30;;;;;;;11.00;89.71;96667.38;105004;1305;22509;-76
2022/10/15 00:27:37;;;;;;;16.90;14.30;;;;;;;10.99;89.75;96666.01;105022;1288;23663;-76
2022/10/15 00:30:10;;;;;;;16.90;13.70;;;;;;;10.96;89.74;96661.45;105030;1305;26184;-76
2022/10/15 00:32:41;;;;;;;17.00;13.30;;;;;;;10.95;89.79;96658.96;105135;1283;22492;-76
2022/10/15 00:35:15;;;;;;;16.20;14.00;;;;;;;10.95;89.86;96655.25;105106;1305;24248;-76
2022/10/15 00:37:46;;;;;;;19.40;14.90;;;;;;;10.94;89.86;96652.82;105113;1305;22604;-75
2022/10/15 00:40:18;;;;;;;19.90;14.60;;;;;;;10.93;89.75;96650.92;104953;1305;25374;-76
2022/10/15 00:42:49;;;;;;;16.60;14.10;;;;;;;10.92;89.77;96650.56;105063;1299;22962;-76
2022/10/15 00:45:21;;;;;;;17.00;14.80;;;;;;;10.92;89.81;96644.94;105000;1306;24348;-76
2022/10/15 00:47:53;;;;;;;17.60;15.30;;;;;;;10.91;89.80;96645.48;105025;1305;22731;-76
2022/10/15 00:50:27;;;;;;;16.80;14.30;;;;;;;10.90;89.81;96646.40;104966;1285;22482;-76
2022/10/15 00:53:03;;;;;;;19.30;14.50;;;;;;;10.91;89.95;96647.08;104794;1305;369996;-76
2022/10/15 00:55:38;;;;;;;19.00;14.60;;;;;;;10.93;89.97;96642.12;105028;1300;24454;-75
2022/10/15 00:58:15;;;;;;;17.30;15.00;;;;;;;10.94;89.83;96639.83;105029;1300;22532;-76
2022/10/15 01:00:46;;;;;;;17.80;14.20;;;;;;;10.94;89.83;96639.34;104961;1284;22466;-76
2022/10/15 01:03:18;;;;;;;17.10;14.30;;;;;;;10.95;89.79;96635.20;104997;1306;24244;-75
2022/10/15 01:05:52;;;;;;;18.60;15.00;;;;;;;10.95;89.74;96635.94;105002;1295;22618;-75
2022/10/15 01:08:23;;;;;;;17.90;13.80;;;;;;;10.95;89.77;96631.59;104955;1305;22499;-75
2022/10/15 01:11:06;;;;;;;17.90;14.60;;;;;;;10.95;89.69;96628.89;105084;1283;25382;-76
2022/10/15 01:13:47;;;;;;;18.20;13.80;;;;;;;10.96;89.56;96624.79;105131;1305;23367;-76
2022/10/15 01:16:25;;;;;;;17.40;14.00;;;;;;;10.97;89.45;96615.98;105137;1282;22546;-75
2022/10/15 01:19:02;;;;;;;16.30;14.10;;;;;;;10.96;89.41;96619.91;105074;1300;22898;-75
2022/10/15 01:21:39;;;;;;;18.70;13.60;;;;;;;10.97;89.35;96618.10;105036;1305;22491;-75
2022/10/15 01:24:44;;;;;;;17.00;14.00;;;;;;;10.98;89.23;96616.57;105079;1305;24307;-76
2022/10/15 01:27:34;;;;;;;18.00;14.50;;;;;;;10.96;89.20;96609.83;105048;1297;25255;-76
2022/10/15 01:30:25;;;;;;;18.70;14.80;;;;;;;10.96;89.19;96609.88;105027;1305;26013;-75
2022/10/15 01:33:30;;;;;;;16.90;14.60;;;;;;;10.97;89.22;96613.38;105135;1297;22535;-76
2022/10/15 01:36:14;;;;;;;19.20;15.00;;;;;;;10.98;89.17;96614.39;105151;1305;22460;-75
2022/10/15 01:38:55;;;;;;;17.80;13.90;;;;;;;11.00;89.08;96614.64;105047;1297;24838;-75
2022/10/15 01:41:34;;;;;;;17.30;14.70;;;;;;;11.01;89.01;96615.38;105087;1303;22474;-75
2022/10/15 01:44:11;;;;;;;19.70;15.40;;;;;;;10.98;88.72;96609.52;105103;1305;24549;-76
2022/10/15 01:46:46;;;;;;;18.80;15.40;;;;;;;10.98;88.79;96616.03;105104;1304;22475;-75
2022/10/15 01:49:21;;;;;;;17.20;13.70;;;;;;;11.00;88.83;96612.89;105115;1305;22755;-75
2022/10/15 01:51:54;;;;;;;17.60;14.60;;;;;;;11.03;88.64;96607.82;105123;1305;24330;-75
2022/10/15 01:54:28;;;;;;;19.20;14.70;;;;;;;11.04;88.68;96608.49;105131;1299;22930;-75
2022/10/15 01:57:00;;;;;;;19.70;14.00;;;;;;;11.06;88.61;96607.63;105103;1299;22482;-75
2022/10/15 01:59:34;;;;;;;19.30;14.10;;;;;;;11.07;88.55;96606.23;105066;1297;25243;-76
2022/10/15 02:02:05;;;;;;;18.00;14.30;;;;;;;11.08;88.53;96606.16;105087;1305;22491;-76
2022/10/15 02:04:36;;;;;;;17.70;13.30;;;;;;;11.08;88.44;96605.36;105066;1300;25416;-76
2022/10/15 02:07:10;;;;;;;18.70;14.60;;;;;;;11.09;88.50;96605.25;105091;1305;22462;-76
2022/10/15 02:09:50;;;;;;;18.40;14.70;;;;;;;11.09;88.45;96595.73;105036;1305;22481;-75
2022/10/15 02:12:43;;;;;;;17.00;14.30;;;;;;;11.12;88.27;96601.45;105138;1305;22591;-75
2022/10/15 02:15:23;;;;;;;21.00;14.90;;;;;;;11.15;88.21;96591.84;105145;1283;22473;-76
2022/10/15 02:18:02;;;;;;;18.70;14.80;;;;;;;11.15;88.14;96596.65;105094;1305;22494;-75
2022/10/15 02:20:42;;;;;;;16.40;13.60;;;;;;;11.16;88.02;96591.86;105016;1291;22474;-75
2022/10/15 02:23:18;;;;;;;17.40;13.20;;;;;;;11.19;87.95;96590.02;105068;1285;22484;-76
2022/10/15 02:25:52;;;;;;;17.60;13.40;;;;;;;11.23;87.68;96588.86;105029;1305;22487;-75
2022/10/15 02:28:28;;;;;;;17.60;13.30;;;;;;;11.28;87.57;96592.38;105076;1297;25221;-76
2022/10/15 02:30:59;;;;;;;17.30;13.60;;;;;;;11.31;87.37;96591.65;105146;1305;25429;-75
2022/10/15 02:33:35;;;;;;;18.90;14.40;;;;;;;11.32;87.18;96586.86;105113;1290;22496;-75
2022/10/15 02:36:08;;;;;;;19.40;12.80;;;;;;;11.34;87.06;96584.61;105124;1284;22520;-75
2022/10/15 02:38:40;;;;;;;17.10;13.70;;;;;;;11.34;86.86;96589.23;105078;1304;24559;-76
2022/10/15 02:41:12;;;;;;;16.80;13.70;;;;;;;11.35;86.80;96587.72;105119;1305;22541;-75
2022/10/15 02:43:47;;;;;;;16.00;12.30;;;;;;;11.34;86.67;96584.23;105117;1296;25435;-75
2022/10/15 02:46:20;;;;;;;16.90;13.50;;;;;;;11.34;86.70;96586.20;105102;1276;24137;-76
2022/10/15 02:48:51;;;;;;;19.20;14.40;;;;;;;11.31;86.63;96589.05;105043;1298;25502;-75
2022/10/15 02:51:22;;;;;;;15.50;12.40;;;;;;;11.29;86.46;96586.52;105123;1304;24498;-75
2022/10/15 02:53:53;;;;;;;18.40;13.70;;;;;;;11.31;86.45;96579.98;105110;1305;24401;-76
2022/10/15 02:56:25;;;;;;;16.30;14.40;;;;;;;11.32;86.35;96575.34;105132;1284;22470;-75
2022/10/15 02:58:56;;;;;;;17.50;14.60;;;;;;;11.32;86.42;96576.41;105020;1297;22472;-75
2022/10/15 03:01:27;;;;;;;16.20;13.60;;;;;;;11.30;86.23;96581.90;105080;1289;22929;-76
2022/10/15 03:03:58;;;;;;;16.70;13.50;;;;;;;11.28;86.24;96582.56;105094;1305;25963;-75
2022/10/15 03:06:29;;;;;;;15.40;12.80;;;;;;;11.27;86.22;96586.06;105105;1303;22635;-75
2022/10/15 03:09:00;;;;;;;17.80;13.80;;;;;;;11.29;86.00;96583.98;105012;1291;27490;-75
2022/10/15 03:11:32;;;;;;;17.60;13.10;;;;;;;11.29;86.00;96585.04;105067;1283;25412;-75
2022/10/15 03:14:03;;;;;;;17.50;13.20;;;;;;;11.28;86.04;96588.45;105060;1288;25255;-76
2022/10/15 03:16:33;;;;;;;18.00;13.70;;;;;;;11.29;85.93;96582.17;105071;1290;22534;-76
2022/10/15 03:19:02;;;;;;;;;;;;;;;11.31;85.84;96578.91;104994;1305;22466;-76
2022/10/15 03:21:34;;;;;;;16.50;13.20;;;;;;;11.30;85.69;96580.19;105083;1291;24797;-75
2022/10/15 03:24:05;;;;;;;19.50;13.80;;;;;;;11.29;85.59;96580.52;105079;1284;22467;-76
2022/10/15 03:26:40;;;;;;;17.50;13.30;;;;;;;11.27;85.62;96585.00;105129;1305;22630;-75
2022/10/15 03:29:11;;;;;;;19.70;14.90;;;;;;;11.23;85.51;96583.50;105074;1300;26625;-76
2022/10/15 03:31:42;;;;;;;16.00;13.90;;;;;;;11.19;85.45;96583.29;105118;1283;22636;-75
2022/10/15 03:34:13;;;;;;;16.40;13.40;;;;;;;11.13;85.38;96582.51;105074;1290;22475;-75
2022/10/15 03:36:44;;;;;;;19.80;15.20;;;;;;;11.08;85.44;96580.80;105115;1287;25379;-75
2022/10/15 03:39:16;;;;;;;16.40;13.20;;;;;;;11.01;85.39;96579.45;105074;1305;22863;-76
2022/10/15 03:41:47;;;;;;;17.70;14.00;;;;;;;10.95;85.44;96583.21;105128;1297;22498;-75
2022/10/15 03:44:18;;;;;;;16.90;13.50;;;;;;;10.89;85.40;96583.18;105094;1296;22474;-75
2022/10/15 03:46:49;;;;;;;16.10;14.30;;;;;;;10.81;85.44;96583.13;105095;1305;23340;-75
2022/10/15 03:49:20;;;;;;;17.00;13.90;;;;;;;10.74;85.41;96583.21;105027;1297;30733;-75
2022/10/15 03:51:51;;;;;;;16.30;13.60;;;;;;;10.65;85.48;96582.23;105112;1298;25218;-75
2022/10/15 03:54:22;;;;;;;16.50;13.50;;;;;;;10.55;85.47;96584.02;105119;1296;24259;-75
2022/10/15 03:56:53;;;;;;;20.20;13.40;;;;;;;10.48;85.58;96580.20;105111;1296;22481;-75
2022/10/15 03:59:24;;;;;;;15.70;13.00;;;;;;;10.41;85.88;96582.27;105040;1299;22495;-75
2022/10/15 04:01:55;;;;;;;16.80;13.80;;;;;;;10.36;85.99;96575.58;105068;1304;22473;-75
2022/10/15 04:04:26;;;;;;;16.20;13.60;;;;;;;10.32;86.36;96572.34;105093;1289;24402;-75
2022/10/15 04:06:57;;;;;;;19.40;15.10;;;;;;;10.27;86.59;96569.98;105102;1300;22474;-76
2022/10/15 04:09:28;;;;;;;16.90;13.50;;;;;;;10.18;86.65;96568.27;105005;1291;22481;-76
2022/10/15 04:11:59;;;;;;;17.10;13.80;;;;;;;10.10;86.76;96569.16;105010;1305;22486;-76
2022/10/15 04:14:30;;;;;;;17.50;13.60;;;;;;;10.01;86.93;96562.94;105009;1305;22585;-76
2022/10/15 04:17:01;;;;;;;18.00;13.80;;;;;;;9.95;86.94;96557.45;104999;1291;22470;-76
2022/10/15 04:19:33;;;;;;;17.50;14.70;;;;;;;9.90;87.03;96555.11;104933;1299;24393;-76
2022/10/15 04:22:04;;;;;;;17.50;13.70;;;;;;;9.84;87.46;96550.84;105031;1290;22475;-76
2022/10/15 04:24:37;;;;;;;20.50;15.00;;;;;;;9.81;87.82;96548.54;105019;1305;22468;-76
2022/10/15 04:27:08;;;;;;;17.80;14.10;;;;;;;9.77;88.01;96552.27;105001;1300;24767;-76
2022/10/15 04:29:39;;;;;;;17.00;14.40;;;;;;;9.71;88.13;96550.40;105036;1305;22478;-76
2022/10/15 04:32:13;;;;;;;17.70;14.00;;;;;;;9.67;88.33;96552.16;105075;1291;24262;-76
2022/10/15 04:34:45;;;;;;;17.10;13.90;;;;;;;9.65;88.53;96550.22;105062;1305;23317;-75
2022/10/15 04:37:16;;;;;;;17.10;14.20;;;;;;;9.60;88.35;96549.94;105063;1305;22478;-75
2022/10/15 04:39:47;;;;;;;17.80;14.40;;;;;;;9.53;88.43;96554.30;105009;1305;22504;-75
2022/10/15 04:42:18;;;;;;;17.20;14.50;;;;;;;9.50;88.44;96550.35;105055;1305;24341;-75
2022/10/15 04:44:49;;;;;;;19.00;14.20;;;;;;;9.45;88.31;96547.41;105065;1305;22478;-75
2022/10/15 04:47:20;;;;;;;17.90;14.10;;;;;;;9.35;88.56;96553.23;105003;1283;24129;-75
2022/10/15 04:49:53;;;;;;;19.80;15.40;;;;;;;9.30;88.93;96551.15;105005;1305;22473;-76
2022/10/15 04:52:27;;;;;;;17.20;14.20;;;;;;;9.34;89.35;96549.48;105076;1284;22508;-75
2022/10/15 04:54:58;;;;;;;19.60;14.40;;;;;;;9.38;89.28;96555.65;105071;1296;22464;-75
2022/10/15 04:57:29;;;;;;;15.10;12.90;;;;;;;9.37;88.95;96554.75;105058;1305;22472;-75
2022/10/15 05:00:00;;;;;;;18.10;13.90;;;;;;;9.31;88.92;96562.20;105015;1305;22474;-75
2022/10/15 05:02:32;;;;;;;17.50;13.50;;;;;;;9.28;89.05;96554.73;105092;1282;22485;-75
2022/10/15 05:05:08;;;;;;;15.90;13.10;;;;;;;9.28;89.06;96554.94;105099;1305;24256;-76
2022/10/15 05:07:39;;;;;;;15.30;12.70;;;;;;;9.26;88.81;96556.38;105151;1304;22496;-75
2022/10/15 05:10:11;;;;;;;18.10;12.80;;;;;;;9.22;88.61;96555.55;105060;1300;24268;-75
2022/10/15 05:12:42;;;;;;;16.50;14.10;;;;;;;9.18;88.62;96555.52;105139;1287;25248;-75
2022/10/15 05:15:13;;;;;;;15.50;13.50;;;;;;;9.14;88.57;96553.20;105093;1290;25321;-75
2022/10/15 05:17:45;;;;;;;18.40;13.70;;;;;;;9.12;88.73;96559.65;105088;1293;22475;-76
2022/10/15 05:20:16;;;;;;;17.50;13.10;;;;;;;9.10;88.73;96560.09;105029;1305;22481;-75
2022/10/15 05:22:47;;;;;;;18.80;13.90;;;;;;;9.00;89.02;96559.33;105031;1297;22490;-75
2022/10/15 05:25:18;;;;;;;18.20;14.10;;;;;;;8.99;89.40;96562.55;105045;1296;22474;-75
2022/10/15 05:27:49;;;;;;;18.30;11.70;;;;;;;8.97;89.56;96562.40;105073;1305;25498;-75
2022/10/15 05:30:20;;;;;;;13.90;10.90;;;;;;;8.90;90.00;96559.10;105031;1303;22593;-75
2022/10/15 05:32:54;;;;;;;16.60;12.00;;;;;;;9.03;90.64;96559.05;105079;1305;24380;-75
2022/10/15 05:35:26;;;;;;;15.50;11.90;;;;;;;9.24;90.79;96559.36;105094;1284;25332;-75
2022/10/15 05:37:57;;;;;;;17.50;11.60;;;;;;;9.39;90.56;96560.41;105077;1294;22540;-75
2022/10/15 05:40:28;;;;;;;14.30;11.80;;;;;;;9.66;90.31;96556.98;105017;1302;22552;-76
2022/10/15 05:42:59;;;;;;;15.80;12.20;;;;;;;10.14;90.11;96556.54;105023;1306;22474;-75
2022/10/15 05:45:30;;;;;;;12.70;11.30;;;;;;;10.74;89.40;96549.16;104998;1305;24804;-76
2022/10/15 05:48:02;;;;;;;14.60;10.70;;;;;;;11.16;88.13;96552.43;104943;1305;22495;-76
2022/10/15 05:50:33;;;;;;;14.00;11.10;;;;;;;11.49;87.26;96553.20;104987;1290;22484;-76
2022/10/15 05:53:04;;;;;;;13.40;10.80;;;;;;;11.72;86.52;96546.02;105012;1305;22607;-76
2022/10/15 05:55:36;;;;;;;12.50;10.20;;;;;;;12.02;85.91;96545.17;105045;1297;22461;-76
2022/10/15 05:58:07;;;;;;;13.10;10.30;;;;;;;11.85;84.18;96548.82;105075;1300;24930;-76
2022/10/15 06:00:39;;;;;;;13.10;10.40;;;;;;;11.96;84.68;96555.04;104957;1305;25334;-76
2022/10/15 06:03:14;;;;;;;13.50;10.60;;;;;;;12.45;84.02;96545.10;105028;1305;25462;-76
2022/10/15 06:05:45;;;;;;;12.10;9.60;;;;;;;12.84;83.98;96545.76;105035;1301;22479;-76
2022/10/15 06:08:16;;;;;;;11.90;9.50;;;;;;;13.55;83.72;96542.76;105024;1303;22477;-76
2022/10/15 06:10:48;;;;;;;12.00;9.70;;;;;;;13.97;82.99;96548.02;105096;1306;33601;-76
2022/10/15 06:13:19;;;;;;;10.90;9.00;;;;;;;14.44;82.34;96545.10;105106;1305;24339;-76
2022/10/15 06:15:50;;;;;;;10.10;8.70;;;;;;;15.35;81.75;96553.20;105121;1304;24341;-76
2022/10/15 06:18:21;;;;;;;8.80;7.70;;;;;;;16.24;79.25;96553.09;105045;1305;22475;-76
2022/10/15 06:20:55;;;;;;;9.40;8.20;;;;;;;16.61;76.59;96550.20;105104;1301;22469;-76
2022/10/15 06:23:29;;;;;;;10.50;8.50;;;;;;;16.95;75.32;96553.54;105077;1305;22685;-77
2022/10/15 06:26:03;;;;;;;10.30;7.90;;;;;;;17.22;73.39;96555.11;105082;1296;22487;-76
2022/10/15 06:28:36;;;;;;;9.00;8.10;;;;;;;17.72;74.39;96560.73;105040;1304;25612;-77
2022/10/15 06:31:09;;;;;;;11.70;8.00;;;;;;;18.61;74.39;96563.97;105149;1290;22547;-77
2022/10/15 06:33:43;;;;;;;10.20;7.60;;;;;;;19.19;71.57;96568.21;105066;1290;22468;-77
2022/10/15 06:36:15;;;;;;;9.70;7.80;;;;;;;18.49;67.56;96568.52;105080;1282;22476;-77
2022/10/15 06:38:47;;;;;;;10.00;7.50;;;;;;;17.48;66.81;96571.21;105050;1304;22483;-77
2022/10/15 06:41:18;;;;;;;9.30;7.70;;;;;;;16.64;66.71;96578.04;105146;1305;25265;-77
2022/10/15 06:43:53;;;;;;;9.30;7.90;;;;;;;16.04;67.08;96579.59;105106;1302;22471;-77
2022/10/15 06:46:25;;;;;;;9.20;8.10;;;;;;;15.65;67.57;96585.27;105059;1289;25162;-77
2022/10/15 06:48:56;;;;;;;10.90;8.60;;;;;;;15.26;67.35;96587.52;105028;1295;22609;-77
2022/10/15 06:51:27;;;;;;;11.00;8.80;;;;;;;14.94;67.79;96592.92;105119;1304;22482;-77
2022/10/15 06:53:59;;;;;;;10.70;9.40;;;;;;;14.76;67.64;96594.55;105082;1305;22603;-77
2022/10/15 06:56:31;;;;;;;9.60;8.50;;;;;;;14.85;68.44;96592.00;105083;1305;25368;-77
2022/10/15 06:59:02;;;;;;;11.70;9.70;;;;;;;15.04;68.60;96594.92;105062;1293;22465;-77
2022/10/15 07:01:35;;;;;;;11.90;10.00;;;;;;;15.14;68.61;96595.95;105058;1287;22467;-77
2022/10/15 07:04:06;;;;;;;12.90;9.80;;;;;;;15.19;68.07;96591.34;105095;1305;22484;-77
2022/10/15 07:06:37;;;;;;;11.60;9.60;;;;;;;15.18;68.14;96585.88;105038;1293;23995;-77
2022/10/15 07:09:09;;;;;;;11.90;10.10;;;;;;;15.20;67.96;96588.12;105055;1295;22480;-76
2022/10/15 07:11:40;;;;;;;18.60;11.40;;;;;;;15.32;67.94;96585.43;105103;1289;22581;-77
2022/10/15 07:14:11;;;;;;;12.20;10.90;;;;;;;15.41;67.77;96585.44;105098;1302;22493;-77
2022/10/15 07:16:42;;;;;;;13.50;11.50;;;;;;;15.46;67.65;96583.48;105085;1304;25459;-77
2022/10/15 07:19:14;;;;;;;14.20;11.60;;;;;;;15.45;67.02;96581.77;105077;1290;22480;-76
2022/10/15 07:21:45;;;;;;;13.00;11.40;;;;;;;15.23;66.51;96582.48;105061;1295;22469;-76
2022/10/15 07:24:18;;;;;;;13.00;11.20;;;;;;;15.06;66.51;96584.48;105066;1305;25285;-77
2022/10/15 07:26:50;;;;;;;14.10;11.60;;;;;;;14.95;66.56;96586.15;105048;1305;22474;-77
2022/10/15 07:29:21;;;;;;;14.30;12.50;;;;;;;14.79;66.24;96588.95;105046;1290;22466;-77
2022/10/15 07:31:53;;;;;;;15.30;12.30;;;;;;;14.71;66.97;96582.90;105092;1305;24260;-77
2022/10/15 07:34:24;;;;;;;14.50;12.40;;;;;;;14.73;67.18;96584.86;105104;1288;22537;-77
2022/10/15 07:36:55;;;;;;;16.70;12.70;;;;;;;14.81;67.34;96590.51;105071;1305;23062;-77
2022/10/15 07:39:27;;;;;;;15.80;12.80;;;;;;;14.81;67.44;96597.02;105030;1305;22558;-77
2022/10/15 07:41:59;;;;;;;17.20;12.10;;;;;;;14.75;67.48;96596.45;105013;1305;22488;-77
2022/10/15 07:44:30;;;;;;;13.30;11.30;;;;;;;14.70;67.33;96596.84;104997;1284;23291;-76
2022/10/15 07:47:02;;;;;;;15.20;12.40;;;;;;;14.69;67.54;96596.08;104989;1305;22492;-77
2022/10/15 07:49:33;;;;;;;14.80;12.80;;;;;;;14.80;67.94;96596.23;105005;1298;22959;-77
2022/10/15 07:52:07;;;;;;;15.00;12.80;;;;;;;14.90;67.25;96599.46;105088;1299;25388;-76
2022/10/15 07:54:38;;;;;;;15.60;11.90;;;;;;;14.94;66.71;96595.27;105089;1305;22478;-77
2022/10/15 07:57:10;;;;;;;14.10;12.20;;;;;;;15.02;67.11;96597.02;105097;1288;22479;-77
2022/10/15 07:59:41;;;;;;;15.10;12.30;;;;;;;15.09;66.13;96592.34;104983;1305;23632;-77
2022/10/15 08:02:17;;;;;;;15.10;13.50;;;;;;;14.89;66.29;96595.79;105039;1306;22491;-77
2022/10/15 08:04:48;;;;;;;14.20;12.70;;;;;;;14.93;67.14;96597.20;105013;1305;22479;-77
2022/10/15 08:07:19;;;;;;;14.50;12.20;;;;;;;14.99;66.96;96595.34;104996;1305;22518;-76
2022/10/15 08:09:50;;;;;;;15.80;13.60;;;;;;;14.97;67.00;96594.14;105021;1281;22483;-76
2022/10/15 08:12:22;;;;;;;13.10;9.50;;;;;;;15.00;66.77;96595.65;105083;1295;25322;-76
2022/10/15 08:14:53;;;;;;;14.90;13.40;;;;;;;14.89;65.31;96587.72;105125;1305;22480;-77
2022/10/15 08:17:25;;;;;;;16.10;13.20;;;;;;;14.79;65.82;96592.03;105094;1305;22468;-76
2022/10/15 08:19:58;;;;;;;15.60;13.60;;;;;;;15.28;66.23;96595.31;105031;1291;24417;-77
2022/10/15 08:22:31;;;;;;;14.80;12.50;;;;;;;16.50;66.63;96588.27;105015;1302;22607;-76
2022/10/15 08:25:02;;;;;;;14.00;12.30;;;;;;;17.59;63.06;96589.75;105011;1304;22472;-77
2022/10/15 08:27:33;;;;;;;16.10;12.60;;;;;;;18.53;63.27;96591.05;105029;1310;22483;-77
2022/10/15 08:30:07;;;;;;;13.60;12.20;;;;;;;19.61;62.95;96590.47;105003;1303;35244;-77
2022/10/15 08:32:38;;;;;;;14.10;12.70;;;;;;;20.15;59.99;96592.76;105089;1291;22478;-77
2022/10/15 08:35:10;;;;;;;13.80;12.40;;;;;;;19.84;56.48;96595.02;105053;1305;22497;-77
2022/10/15 08:37:41;;;;;;;15.10;12.60;;;;;;;18.82;56.04;96592.10;105034;1303;22483;-77
2022/10/15 08:40:15;;;;;;;13.60;12.20;;;;;;;18.69;57.33;96590.64;104976;1305;22484;-77
2022/10/15 08:42:49;;;;;;;12.80;10.80;;;;;;;18.69;58.31;96587.89;105016;1296;23746;-77
2022/10/15 08:45:25;;;;;;;15.10;12.50;;;;;;;18.45;56.91;96589.67;105004;1296;22478;-77
2022/10/15 08:48:00;;;;;;;14.20;12.40;;;;;;;18.36;57.42;96597.64;105001;1311;22495;-77
2022/10/15 08:50:40;;;;;;;12.80;11.30;;;;;;;18.25;57.69;96600.37;105003;1295;22487;-77
2022/10/15 08:53:17;;;;;;;12.10;10.90;;;;;;;18.17;57.68;96600.40;105028;1303;22465;-77
2022/10/15 08:55:55;;;;;;;14.00;11.90;;;;;;;17.78;56.19;96594.09;104998;1305;24451;-77
2022/10/15 08:58:38;;;;;;;13.10;11.40;;;;;;;17.33;57.03;96590.06;105000;1311;43700;-77
2022/10/15 09:01:18;;;;;;;13.70;12.20;;;;;;;17.00;57.37;96595.69;105016;1304;22936;-78
2022/10/15 09:04:00;;;;;;;14.10;11.50;;;;;;;17.01;58.87;96594.05;105011;1308;24302;-77
2022/10/15 09:06:36;;;;;;;13.90;12.40;;;;;;;17.11;57.93;96593.25;104983;1293;22485;-77
2022/10/15 09:09:16;;;;;;;13.10;11.80;;;;;;;16.89;57.76;96598.30;104972;1298;23638;-77
2022/10/15 09:11:59;;;;;;;15.60;12.80;;;;;;;16.81;58.92;96599.17;105041;1307;23729;-77
2022/10/15 09:14:34;;;;;;;14.40;11.90;;;;;;;16.86;59.08;96602.83;105001;1306;24327;-77
2022/10/15 09:17:15;;;;;;;13.70;11.40;;;;;;;16.79;58.69;96603.77;105026;1298;22575;-77
2022/10/15 09:19:49;;;;;;;13.70;11.90;;;;;;;16.65;58.83;96608.33;104995;1299;24964;-77
2022/10/15 09:22:28;;;;;;;15.40;12.40;;;;;;;16.56;58.63;96602.53;105029;1295;22495;-77
2022/10/15 09:25:00;;;;;;;13.90;11.20;;;;;;;16.33;58.79;96608.30;105024;1289;22483;-77
2022/10/15 09:27:34;;;;;;;13.80;12.40;;;;;;;16.49;58.95;96595.87;105005;1305;22559;-77
2022/10/15 09:30:18;;;;;;;12.50;11.20;;;;;;;16.61;58.74;96596.88;104979;1296;22514;-77
2022/10/15 09:32:55;;;;;;;13.70;11.30;;;;;;;16.70;59.05;96593.50;105041;1306;22491;-77
2022/10/15 09:35:30;;;;;;;13.80;11.30;;;;;;;16.77;58.37;96591.27;105078;1306;23134;-77
2022/10/15 09:38:15;;;;;;;12.50;11.20;;;;;;;16.74;58.54;96593.22;105065;1305;22480;-77
2022/10/15 09:41:00;;;;;;;13.00;11.60;;;;;;;16.98;59.24;96594.02;105037;1305;37040;-77
2022/10/15 09:43:36;;;;;;;11.60;9.60;;;;;;;17.13;58.33;96591.48;105038;1299;24258;-77
2022/10/15 09:46:09;;;;;;;13.10;10.90;;;;;;;17.01;56.94;96588.75;105055;1284;22480;-77
2022/10/15 09:48:46;;;;;;;11.40;9.30;;;;;;;16.94;57.16;96585.94;105030;1305;23395;-77
2022/10/15 09:51:28;;;;;;;14.80;11.00;;;;;;;16.83;56.19;96593.67;105094;1305;22489;-77
2022/10/15 09:54:07;;;;;;;14.10;10.70;;;;;;;16.74;56.73;96595.95;105106;1290;22667;-77
2022/10/15 09:56:44;;;;;;;14.30;11.00;;;;;;;16.68;57.03;96597.21;105068;1305;22601;-77
2022/10/15 09:59:21;;;;;;;13.10;11.30;;;;;;;16.58;56.35;96594.50;105053;1298;22525;-77
2022/10/15 10:02:01;;;;;;;15.60;10.60;;;;;;;16.55;57.10;96601.08;105078;1290;22492;-77
2022/10/15 10:04:35;;;;;;;11.40;10.20;;;;;;;16.44;56.76;96596.61;105054;1305;23974;-77
2022/10/15 10:07:08;;;;;;;13.80;11.10;;;;;;;16.41;57.24;96587.40;105137;1299;22480;-77
2022/10/15 10:09:53;;;;;;;13.10;10.10;;;;;;;16.65;57.78;96602.91;104935;1305;22488;-77
2022/10/15 10:12:28;;;;;;;12.40;10.40;;;;;;;16.91;56.40;96572.68;105010;1305;22583;-77
2022/10/15 10:15:00;;;;;;;12.90;10.80;;;;;;;17.10;56.82;96598.98;105041;1287;25358;-77
2022/10/15 10:17:32;;;;;;;15.00;10.20;;;;;;;17.32;55.50;96581.07;105029;1300;22476;-77
2022/10/15 10:20:16;;;;;;;12.50;10.50;;;;;;;17.38;55.49;96588.42;104958;1302;32693;-77
2022/10/15 10:22:51;;;;;;;13.00;9.90;;;;;;;17.50;55.56;96590.20;105096;1305;22551;-77
2022/10/15 10:25:31;;;;;;;14.50;11.70;;;;;;;17.61;55.90;96591.88;105054;1305;22477;-77
2022/10/15 10:28:15;;;;;;;11.90;8.90;;;;;;;17.77;55.81;96596.05;105059;1283;22466;-76
2022/10/15 10:31:02;;;;;;;11.50;10.00;;;;;;;17.82;55.54;96591.79;105042;1283;22479;-76
2022/10/15 10:33:36;;;;;;;12.60;10.20;;;;;;;17.93;55.37;96587.40;105052;1294;25350;-77
2022/10/15 10:36:19;;;;;;;10.80;8.90;;;;;;;18.07;55.36;96589.08;105081;1305;24339;-76
2022/10/15 10:39:01;;;;;;;12.90;11.10;;;;;;;18.07;55.13;96587.38;105000;1283;22483;-77
2022/10/15 10:41:53;;;;;;;12.20;10.00;;;;;;;18.05;54.60;96584.45;105074;1304;25380;-77
2022/10/15 10:44:29;;;;;;;13.30;10.80;;;;;;;17.95;54.38;96594.20;105159;1300;22483;-77
2022/10/15 10:47:17;;;;;;;12.30;11.00;;;;;;;17.79;54.65;96584.42;105070;1305;22537;-77
2022/10/15 10:49:53;;;;;;;13.00;10.20;;;;;;;17.70;54.74;96585.95;105021;1291;22474;-77
2022/10/15 10:52:27;;;;;;;10.80;9.70;;;;;;;17.59;54.34;96592.58;105023;1305;24530;-77
2022/10/15 10:55:03;;;;;;;11.80;10.40;;;;;;;17.49;54.25;96590.88;105017;1305;22519;-77
2022/10/15 10:57:44;;;;;;;12.10;9.60;;;;;;;17.46;55.03;96588.52;105002;1305;22489;-77
2022/10/15 11:00:22;;;;;;;11.30;8.70;;;;;;;17.28;54.55;96597.52;105009;1293;25696;-77
2022/10/15 11:02:56;;;;;;;12.40;10.70;;;;;;;17.12;54.68;96608.02;105086;1296;25357;-77
2022/10/15 11:05:31;;;;;;;12.20;9.40;;;;;;;16.99;54.56;96604.66;105098;1297;22468;-77
2022/10/15 11:08:11;;;;;;;11.60;8.10;;;;;;;16.88;54.96;96607.90;105059;1298;24338;-77
2022/10/15 11:10:50;;;;;;;12.70;10.10;;;;;;;16.80;54.99;96606.48;105020;1294;25272;-77
2022/10/15 11:13:34;;;;;;;13.20;10.40;;;;;;;16.81;55.63;96604.92;105041;1305;22505;-77
2022/10/15 11:16:15;;;;;;;11.50;9.40;;;;;;;16.77;55.42;96603.23;105032;1305;22467;-77
2022/10/15 11:19:00;;;;;;;13.40;9.80;;;;;;;16.71;55.95;96611.42;104959;1305;25391;-77
2022/10/15 11:21:49;;;;;;;11.20;9.90;;;;;;;16.72;56.25;96608.27;104979;1305;22454;-77
2022/10/15 11:24:30;;;;;;;13.30;10.10;;;;;;;16.74;56.53;96611.73;105003;1290;25350;-77
2022/10/15 11:27:22;;;;;;;10.80;9.70;;;;;;;16.86;56.53;96604.34;105004;1305;24321;-77
2022/10/15 11:30:00;;;;;;;11.80;10.50;;;;;;;16.97;56.30;96609.61;105009;1292;27731;-77
2022/10/15 11:32:41;;;;;;;12.90;10.50;;;;;;;16.96;55.97;96609.61;105085;1284;22457;-77
2022/10/15 11:35:26;;;;;;;11.10;9.50;;;;;;;16.97;56.36;96612.27;105053;1305;22487;-77
2022/10/15 11:38:10;;;;;;;12.80;9.70;;;;;;;16.99;56.48;96607.42;105077;1298;22719;-77
2022/10/15 11:40:52;;;;;;;13.20;9.90;;;;;;;16.96;57.02;96611.52;104926;1295;24966;-77
2022/10/15 11:43:39;;;;;;;12.60;10.60;;;;;;;17.02;57.33;96609.91;105020;1306;24337;-77
2022/10/15 11:46:20;;;;;;;11.10;9.40;;;;;;;17.06;57.36;96604.00;104958;1305;25467;-77